sensor_id;sensor_type;location;lat;lon;timestamp;P1;durP1;ratioP1;P2;durP2;ratioP2
6135;SDS011;24008;42.664;23.372;2024-01-06T00:02:14;53.93;;;29.47;;
6135;SDS011;24008;42.664;23.372;2024-01-06T00:04:41;58.63;;;31.30;;
6135;SDS011;24008;42.664;23.372;2024-01-06T00:07:07;60.40;;;32.17;;
6135;SDS011;24008;42.664;23.372;2024-01-06T00:09:34;53.63;;;32.50;;
6135;SDS011;24008;42.664;23.372;2024-01-06T00:12:01;63.77;;;35.20;;
6135;SDS011;24008;42.664;23.372;2024-01-06T00:14:29;63.03;;;35.43;;
6135;SDS011;24008;42.664;23.372;2024-01-06T00:16:56;72.53;;;35.47;;
6135;SDS011;24008;42.664;23.372;2024-01-06T00:19:22;73.10;;;37.57;;
6135;SDS011;24008;42.664;23.372;2024-01-06T00:21:49;71.63;;;37.90;;
6135;SDS011;24008;42.664;23.372;2024-01-06T00:24:16;61.70;;;34.57;;
6135;SDS011;24008;42.664;23.372;2024-01-06T00:26:42;66.97;;;34.87;;
6135;SDS011;24008;42.664;23.372;2024-01-06T00:29:09;67.77;;;36.63;;
6135;SDS011;24008;42.664;23.372;2024-01-06T00:31:37;67.67;;;35.73;;
6135;SDS011;24008;42.664;23.372;2024-01-06T00:34:04;67.07;;;37.83;;
6135;SDS011;24008;42.664;23.372;2024-01-06T00:36:30;65.87;;;35.73;;
6135;SDS011;24008;42.664;23.372;2024-01-06T00:38:57;68.90;;;36.20;;
6135;SDS011;24008;42.664;23.372;2024-01-06T00:41:24;68.10;;;35.67;;
6135;SDS011;24008;42.664;23.372;2024-01-06T00:43:50;70.43;;;34.63;;
6135;SDS011;24008;42.664;23.372;2024-01-06T00:46:17;73.83;;;38.27;;
6135;SDS011;24008;42.664;23.372;2024-01-06T00:48:45;65.10;;;34.63;;
6135;SDS011;24008;42.664;23.372;2024-01-06T00:51:12;61.37;;;34.23;;
6135;SDS011;24008;42.664;23.372;2024-01-06T00:53:38;64.63;;;35.37;;
6135;SDS011;24008;42.664;23.372;2024-01-06T00:56:05;71.27;;;34.67;;
6135;SDS011;24008;42.664;23.372;2024-01-06T00:58:32;53.27;;;32.57;;
6135;SDS011;24008;42.664;23.372;2024-01-06T01:00:58;60.20;;;33.67;;
6135;SDS011;24008;42.664;23.372;2024-01-06T01:03:25;58.50;;;32.67;;
6135;SDS011;24008;42.664;23.372;2024-01-06T01:05:53;70.57;;;34.37;;
6135;SDS011;24008;42.664;23.372;2024-01-06T01:08:20;60.50;;;33.10;;
6135;SDS011;24008;42.664;23.372;2024-01-06T01:10:47;62.10;;;32.67;;
6135;SDS011;24008;42.664;23.372;2024-01-06T01:13:13;59.77;;;32.97;;
6135;SDS011;24008;42.664;23.372;2024-01-06T01:15:40;58.27;;;34.47;;
6135;SDS011;24008;42.664;23.372;2024-01-06T01:18:07;67.47;;;34.50;;
6135;SDS011;24008;42.664;23.372;2024-01-06T01:20:33;55.97;;;31.67;;
6135;SDS011;24008;42.664;23.372;2024-01-06T01:23:01;61.93;;;33.57;;
6135;SDS011;24008;42.664;23.372;2024-01-06T01:25:28;59.27;;;32.47;;
6135;SDS011;24008;42.664;23.372;2024-01-06T01:27:55;52.77;;;32.23;;
6135;SDS011;24008;42.664;23.372;2024-01-06T01:30:21;52.77;;;30.43;;
6135;SDS011;24008;42.664;23.372;2024-01-06T01:32:47;54.00;;;30.60;;
6135;SDS011;24008;42.664;23.372;2024-01-06T01:35:14;53.60;;;30.83;;
6135;SDS011;24008;42.664;23.372;2024-01-06T01:37:41;63.97;;;31.43;;
6135;SDS011;24008;42.664;23.372;2024-01-06T01:40:09;55.47;;;30.23;;
6135;SDS011;24008;42.664;23.372;2024-01-06T01:42:36;54.60;;;31.73;;
6135;SDS011;24008;42.664;23.372;2024-01-06T01:45:03;60.97;;;32.60;;
6135;SDS011;24008;42.664;23.372;2024-01-06T01:47:31;62.77;;;33.33;;
6135;SDS011;24008;42.664;23.372;2024-01-06T01:49:57;60.00;;;33.00;;
6135;SDS011;24008;42.664;23.372;2024-01-06T01:52:24;54.40;;;32.17;;
6135;SDS011;24008;42.664;23.372;2024-01-06T01:54:51;59.83;;;33.30;;
6135;SDS011;24008;42.664;23.372;2024-01-06T01:57:20;57.73;;;31.87;;
6135;SDS011;24008;42.664;23.372;2024-01-06T01:59:49;59.33;;;33.37;;
6135;SDS011;24008;42.664;23.372;2024-01-06T02:02:17;67.23;;;34.73;;
6135;SDS011;24008;42.664;23.372;2024-01-06T02:04:44;70.23;;;37.30;;
6135;SDS011;24008;42.664;23.372;2024-01-06T02:07:11;69.57;;;38.77;;
6135;SDS011;24008;42.664;23.372;2024-01-06T02:09:38;88.87;;;45.07;;
6135;SDS011;24008;42.664;23.372;2024-01-06T02:12:05;60.80;;;35.20;;
6135;SDS011;24008;42.664;23.372;2024-01-06T02:14:33;84.23;;;44.50;;
6135;SDS011;24008;42.664;23.372;2024-01-06T02:17:00;97.10;;;50.53;;
6135;SDS011;24008;42.664;23.372;2024-01-06T02:19:26;83.93;;;49.60;;
6135;SDS011;24008;42.664;23.372;2024-01-06T02:21:55;89.63;;;45.60;;
6135;SDS011;24008;42.664;23.372;2024-01-06T02:24:21;81.83;;;41.23;;
6135;SDS011;24008;42.664;23.372;2024-01-06T02:26:48;73.87;;;40.10;;
6135;SDS011;24008;42.664;23.372;2024-01-06T02:29:15;69.27;;;39.10;;
6135;SDS011;24008;42.664;23.372;2024-01-06T02:31:42;59.17;;;34.77;;
6135;SDS011;24008;42.664;23.372;2024-01-06T02:34:09;47.73;;;28.37;;
6135;SDS011;24008;42.664;23.372;2024-01-06T02:36:35;55.90;;;32.10;;
6135;SDS011;24008;42.664;23.372;2024-01-06T02:39:03;52.03;;;32.33;;
6135;SDS011;24008;42.664;23.372;2024-01-06T02:41:30;51.17;;;28.57;;
6135;SDS011;24008;42.664;23.372;2024-01-06T02:43:57;42.80;;;24.17;;
6135;SDS011;24008;42.664;23.372;2024-01-06T02:46:24;51.93;;;26.43;;
6135;SDS011;24008;42.664;23.372;2024-01-06T02:48:51;52.17;;;28.60;;
6135;SDS011;24008;42.664;23.372;2024-01-06T02:51:17;54.07;;;29.87;;
6135;SDS011;24008;42.664;23.372;2024-01-06T02:53:44;48.70;;;27.93;;
6135;SDS011;24008;42.664;23.372;2024-01-06T02:56:12;41.97;;;25.93;;
6135;SDS011;24008;42.664;23.372;2024-01-06T02:58:38;42.60;;;26.20;;
6135;SDS011;24008;42.664;23.372;2024-01-06T03:01:05;43.03;;;27.43;;
6135;SDS011;24008;42.664;23.372;2024-01-06T03:03:32;37.33;;;20.73;;
6135;SDS011;24008;42.664;23.372;2024-01-06T03:05:59;35.27;;;20.10;;
6135;SDS011;24008;42.664;23.372;2024-01-06T03:08:25;31.67;;;18.87;;
6135;SDS011;24008;42.664;23.372;2024-01-06T03:10:52;31.00;;;19.50;;
6135;SDS011;24008;42.664;23.372;2024-01-06T03:13:21;35.90;;;22.60;;
6135;SDS011;24008;42.664;23.372;2024-01-06T03:15:47;36.73;;;22.50;;
6135;SDS011;24008;42.664;23.372;2024-01-06T03:18:14;38.07;;;23.20;;
6135;SDS011;24008;42.664;23.372;2024-01-06T03:20:41;39.33;;;22.47;;
6135;SDS011;24008;42.664;23.372;2024-01-06T03:23:07;36.33;;;21.83;;
6135;SDS011;24008;42.664;23.372;2024-01-06T03:25:34;35.93;;;21.10;;
6135;SDS011;24008;42.664;23.372;2024-01-06T03:28:01;33.67;;;20.23;;
6135;SDS011;24008;42.664;23.372;2024-01-06T03:30:29;32.27;;;20.10;;
6135;SDS011;24008;42.664;23.372;2024-01-06T03:32:55;34.30;;;20.37;;
6135;SDS011;24008;42.664;23.372;2024-01-06T03:35:22;38.27;;;22.20;;
6135;SDS011;24008;42.664;23.372;2024-01-06T03:37:49;35.27;;;20.00;;
6135;SDS011;24008;42.664;23.372;2024-01-06T03:40:16;30.27;;;16.97;;
6135;SDS011;24008;42.664;23.372;2024-01-06T03:42:42;31.90;;;18.67;;
6135;SDS011;24008;42.664;23.372;2024-01-06T03:45:09;30.83;;;18.40;;
6135;SDS011;24008;42.664;23.372;2024-01-06T03:47:37;25.63;;;16.40;;
6135;SDS011;24008;42.664;23.372;2024-01-06T03:50:04;29.80;;;17.30;;
6135;SDS011;24008;42.664;23.372;2024-01-06T03:52:31;24.80;;;16.03;;
6135;SDS011;24008;42.664;23.372;2024-01-06T03:54:58;24.73;;;15.33;;
6135;SDS011;24008;42.664;23.372;2024-01-06T03:57:24;28.20;;;16.60;;
6135;SDS011;24008;42.664;23.372;2024-01-06T03:59:51;24.13;;;14.87;;
6135;SDS011;24008;42.664;23.372;2024-01-06T04:02:18;28.97;;;16.37;;
6135;SDS011;24008;42.664;23.372;2024-01-06T04:04:45;28.37;;;16.60;;
6135;SDS011;24008;42.664;23.372;2024-01-06T04:07:12;28.87;;;17.90;;
6135;SDS011;24008;42.664;23.372;2024-01-06T04:09:41;31.07;;;16.40;;
6135;SDS011;24008;42.664;23.372;2024-01-06T04:12:08;31.00;;;15.70;;
6135;SDS011;24008;42.664;23.372;2024-01-06T04:14:35;29.00;;;16.23;;
6135;SDS011;24008;42.664;23.372;2024-01-06T04:17:01;27.03;;;17.33;;
6135;SDS011;24008;42.664;23.372;2024-01-06T04:19:28;28.60;;;17.73;;
6135;SDS011;24008;42.664;23.372;2024-01-06T04:21:56;16.03;;;11.20;;
6135;SDS011;24008;42.664;23.372;2024-01-06T04:24:23;26.03;;;16.17;;
6135;SDS011;24008;42.664;23.372;2024-01-06T04:26:49;25.53;;;15.60;;
6135;SDS011;24008;42.664;23.372;2024-01-06T04:29:16;27.27;;;15.80;;
6135;SDS011;24008;42.664;23.372;2024-01-06T04:31:43;28.30;;;12.70;;
6135;SDS011;24008;42.664;23.372;2024-01-06T04:34:09;22.50;;;13.10;;
6135;SDS011;24008;42.664;23.372;2024-01-06T04:36:36;17.50;;;11.10;;
6135;SDS011;24008;42.664;23.372;2024-01-06T04:39:04;19.60;;;11.60;;
6135;SDS011;24008;42.664;23.372;2024-01-06T04:41:31;23.20;;;13.27;;
6135;SDS011;24008;42.664;23.372;2024-01-06T04:43:58;17.07;;;9.93;;
6135;SDS011;24008;42.664;23.372;2024-01-06T04:46:25;15.23;;;8.07;;
6135;SDS011;24008;42.664;23.372;2024-01-06T04:48:51;12.97;;;8.50;;
6135;SDS011;24008;42.664;23.372;2024-01-06T04:51:18;14.50;;;8.97;;
6135;SDS011;24008;42.664;23.372;2024-01-06T04:53:45;12.77;;;7.93;;
6135;SDS011;24008;42.664;23.372;2024-01-06T04:56:13;18.87;;;8.83;;
6135;SDS011;24008;42.664;23.372;2024-01-06T04:58:39;16.50;;;9.17;;
6135;SDS011;24008;42.664;23.372;2024-01-06T05:01:06;14.23;;;8.70;;
6135;SDS011;24008;42.664;23.372;2024-01-06T05:03:33;13.37;;;7.80;;
6135;SDS011;24008;42.664;23.372;2024-01-06T05:06:00;11.10;;;7.13;;
6135;SDS011;24008;42.664;23.372;2024-01-06T05:08:26;16.93;;;9.03;;
6135;SDS011;24008;42.664;23.372;2024-01-06T05:10:55;14.30;;;7.73;;
6135;SDS011;24008;42.664;23.372;2024-01-06T05:13:24;15.07;;;8.40;;
6135;SDS011;24008;42.664;23.372;2024-01-06T05:15:50;12.67;;;8.60;;
6135;SDS011;24008;42.664;23.372;2024-01-06T05:18:17;17.40;;;8.90;;
6135;SDS011;24008;42.664;23.372;2024-01-06T05:20:44;16.23;;;10.17;;
6135;SDS011;24008;42.664;23.372;2024-01-06T05:23:10;17.47;;;10.60;;
6135;SDS011;24008;42.664;23.372;2024-01-06T05:25:37;19.33;;;9.60;;
6135;SDS011;24008;42.664;23.372;2024-01-06T05:28:04;19.00;;;10.17;;
6135;SDS011;24008;42.664;23.372;2024-01-06T05:30:32;18.27;;;10.53;;
6135;SDS011;24008;42.664;23.372;2024-01-06T05:32:59;21.07;;;10.33;;
6135;SDS011;24008;42.664;23.372;2024-01-06T05:35:25;16.00;;;10.50;;
6135;SDS011;24008;42.664;23.372;2024-01-06T05:37:52;19.20;;;10.30;;
6135;SDS011;24008;42.664;23.372;2024-01-06T05:40:19;14.57;;;8.50;;
6135;SDS011;24008;42.664;23.372;2024-01-06T05:42:45;14.30;;;9.67;;
6135;SDS011;24008;42.664;23.372;2024-01-06T05:45:12;15.90;;;10.03;;
6135;SDS011;24008;42.664;23.372;2024-01-06T05:47:40;13.93;;;9.60;;
6135;SDS011;24008;42.664;23.372;2024-01-06T05:50:07;16.23;;;9.67;;
6135;SDS011;24008;42.664;23.372;2024-01-06T05:52:35;19.10;;;10.03;;
6135;SDS011;24008;42.664;23.372;2024-01-06T05:55:02;14.53;;;9.33;;
6135;SDS011;24008;42.664;23.372;2024-01-06T05:57:29;16.27;;;9.50;;
6135;SDS011;24008;42.664;23.372;2024-01-06T05:59:56;15.63;;;9.53;;
6135;SDS011;24008;42.664;23.372;2024-01-06T06:02:22;16.73;;;10.23;;
6135;SDS011;24008;42.664;23.372;2024-01-06T06:04:51;13.07;;;7.80;;
6135;SDS011;24008;42.664;23.372;2024-01-06T06:07:17;14.87;;;8.07;;
6135;SDS011;24008;42.664;23.372;2024-01-06T06:09:44;16.47;;;8.87;;
6135;SDS011;24008;42.664;23.372;2024-01-06T06:12:12;17.37;;;9.10;;
6135;SDS011;24008;42.664;23.372;2024-01-06T06:14:39;16.17;;;8.30;;
6135;SDS011;24008;42.664;23.372;2024-01-06T06:17:05;12.33;;;7.97;;
6135;SDS011;24008;42.664;23.372;2024-01-06T06:19:32;13.53;;;7.50;;
6135;SDS011;24008;42.664;23.372;2024-01-06T06:22:00;17.93;;;8.00;;
6135;SDS011;24008;42.664;23.372;2024-01-06T06:24:27;11.90;;;6.97;;
6135;SDS011;24008;42.664;23.372;2024-01-06T06:26:53;15.77;;;7.70;;
6135;SDS011;24008;42.664;23.372;2024-01-06T06:29:20;11.23;;;6.57;;
6135;SDS011;24008;42.664;23.372;2024-01-06T06:31:47;16.30;;;8.53;;
6135;SDS011;24008;42.664;23.372;2024-01-06T06:34:13;14.47;;;8.23;;
6135;SDS011;24008;42.664;23.372;2024-01-06T06:36:40;13.70;;;8.10;;
6135;SDS011;24008;42.664;23.372;2024-01-06T06:39:08;15.23;;;8.90;;
6135;SDS011;24008;42.664;23.372;2024-01-06T06:41:35;12.50;;;8.50;;
6135;SDS011;24008;42.664;23.372;2024-01-06T06:44:02;14.67;;;9.57;;
6135;SDS011;24008;42.664;23.372;2024-01-06T06:46:29;13.33;;;8.97;;
6135;SDS011;24008;42.664;23.372;2024-01-06T06:48:56;20.93;;;8.97;;
6135;SDS011;24008;42.664;23.372;2024-01-06T06:51:23;18.83;;;9.23;;
6135;SDS011;24008;42.664;23.372;2024-01-06T06:53:52;15.20;;;8.90;;
6135;SDS011;24008;42.664;23.372;2024-01-06T06:56:20;18.00;;;10.30;;
6135;SDS011;24008;42.664;23.372;2024-01-06T06:58:46;17.43;;;10.00;;
6135;SDS011;24008;42.664;23.372;2024-01-06T07:01:13;14.00;;;9.30;;
6135;SDS011;24008;42.664;23.372;2024-01-06T07:03:40;13.67;;;9.37;;
6135;SDS011;24008;42.664;23.372;2024-01-06T07:06:06;19.40;;;10.63;;
6135;SDS011;24008;42.664;23.372;2024-01-06T07:08:33;18.13;;;9.67;;
6135;SDS011;24008;42.664;23.372;2024-01-06T07:11:00;15.30;;;9.77;;
6135;SDS011;24008;42.664;23.372;2024-01-06T07:13:28;14.30;;;9.97;;
6135;SDS011;24008;42.664;23.372;2024-01-06T07:15:55;15.10;;;10.10;;
6135;SDS011;24008;42.664;23.372;2024-01-06T07:18:21;15.90;;;10.20;;
6135;SDS011;24008;42.664;23.372;2024-01-06T07:20:50;18.40;;;11.13;;
6135;SDS011;24008;42.664;23.372;2024-01-06T07:23:16;24.93;;;13.70;;
6135;SDS011;24008;42.664;23.372;2024-01-06T07:25:43;34.90;;;19.50;;
6135;SDS011;24008;42.664;23.372;2024-01-06T07:28:10;21.77;;;14.33;;
6135;SDS011;24008;42.664;23.372;2024-01-06T07:30:38;25.47;;;14.43;;
6135;SDS011;24008;42.664;23.372;2024-01-06T07:33:04;23.83;;;14.50;;
6135;SDS011;24008;42.664;23.372;2024-01-06T07:35:31;25.83;;;14.00;;
6135;SDS011;24008;42.664;23.372;2024-01-06T07:37:58;24.53;;;12.57;;
6135;SDS011;24008;42.664;23.372;2024-01-06T07:40:24;19.87;;;13.27;;
6135;SDS011;24008;42.664;23.372;2024-01-06T07:42:51;20.93;;;12.87;;
6135;SDS011;24008;42.664;23.372;2024-01-06T07:45:18;20.77;;;12.63;;
6135;SDS011;24008;42.664;23.372;2024-01-06T07:47:46;19.60;;;12.87;;
6135;SDS011;24008;42.664;23.372;2024-01-06T07:50:12;23.03;;;13.80;;
6135;SDS011;24008;42.664;23.372;2024-01-06T07:52:39;23.93;;;14.17;;
6135;SDS011;24008;42.664;23.372;2024-01-06T07:55:06;23.67;;;14.27;;
6135;SDS011;24008;42.664;23.372;2024-01-06T07:57:33;27.47;;;13.20;;
6135;SDS011;24008;42.664;23.372;2024-01-06T08:00:00;23.47;;;13.93;;
6135;SDS011;24008;42.664;23.372;2024-01-06T08:02:27;20.43;;;13.70;;
6135;SDS011;24008;42.664;23.372;2024-01-06T08:04:55;23.50;;;14.47;;
6135;SDS011;24008;42.664;23.372;2024-01-06T08:07:22;24.37;;;13.93;;
6135;SDS011;24008;42.664;23.372;2024-01-06T08:09:51;19.03;;;11.73;;
6135;SDS011;24008;42.664;23.372;2024-01-06T08:12:18;23.10;;;12.20;;
6135;SDS011;24008;42.664;23.372;2024-01-06T08:14:44;23.03;;;14.43;;
6135;SDS011;24008;42.664;23.372;2024-01-06T08:17:11;20.80;;;12.93;;
6135;SDS011;24008;42.664;23.372;2024-01-06T08:19:38;21.33;;;12.17;;
6135;SDS011;24008;42.664;23.372;2024-01-06T08:22:06;20.73;;;12.10;;
6135;SDS011;24008;42.664;23.372;2024-01-06T08:24:32;22.93;;;13.23;;
6135;SDS011;24008;42.664;23.372;2024-01-06T08:26:59;22.33;;;12.60;;
6135;SDS011;24008;42.664;23.372;2024-01-06T08:29:26;30.40;;;16.37;;
6135;SDS011;24008;42.664;23.372;2024-01-06T08:31:52;28.67;;;16.53;;
6135;SDS011;24008;42.664;23.372;2024-01-06T08:34:19;34.07;;;20.77;;
6135;SDS011;24008;42.664;23.372;2024-01-06T08:36:46;48.93;;;28.93;;
6135;SDS011;24008;42.664;23.372;2024-01-06T08:39:14;51.27;;;28.63;;
6135;SDS011;24008;42.664;23.372;2024-01-06T08:41:41;56.37;;;34.70;;
6135;SDS011;24008;42.664;23.372;2024-01-06T08:44:08;63.87;;;37.23;;
6135;SDS011;24008;42.664;23.372;2024-01-06T08:46:34;49.17;;;29.90;;
6135;SDS011;24008;42.664;23.372;2024-01-06T08:49:01;57.47;;;32.60;;
6135;SDS011;24008;42.664;23.372;2024-01-06T08:51:28;48.10;;;27.60;;
6135;SDS011;24008;42.664;23.372;2024-01-06T08:53:56;42.67;;;27.60;;
6135;SDS011;24008;42.664;23.372;2024-01-06T08:56:24;57.17;;;34.03;;
6135;SDS011;24008;42.664;23.372;2024-01-06T08:58:50;68.07;;;40.13;;
6135;SDS011;24008;42.664;23.372;2024-01-06T09:01:17;74.07;;;43.77;;
6135;SDS011;24008;42.664;23.372;2024-01-06T09:03:44;81.40;;;46.27;;
6135;SDS011;24008;42.664;23.372;2024-01-06T09:06:10;102.73;;;59.40;;
6135;SDS011;24008;42.664;23.372;2024-01-06T09:08:37;106.23;;;62.63;;
6135;SDS011;24008;42.664;23.372;2024-01-06T09:14:27;103.37;;;57.00;;
6135;SDS011;24008;42.664;23.372;2024-01-06T09:16:54;94.50;;;55.67;;
6135;SDS011;24008;42.664;23.372;2024-01-06T09:19:21;87.13;;;53.27;;
6135;SDS011;24008;42.664;23.372;2024-01-06T09:21:48;73.40;;;43.27;;
6135;SDS011;24008;42.664;23.372;2024-01-06T09:24:14;70.80;;;39.87;;
6135;SDS011;24008;42.664;23.372;2024-01-06T09:26:41;61.37;;;39.17;;
6135;SDS011;24008;42.664;23.372;2024-01-06T09:29:09;63.40;;;38.53;;
6135;SDS011;24008;42.664;23.372;2024-01-06T09:31:37;61.10;;;38.70;;
6135;SDS011;24008;42.664;23.372;2024-01-06T09:34:04;56.77;;;35.77;;
6135;SDS011;24008;42.664;23.372;2024-01-06T09:36:31;55.47;;;32.57;;
6135;SDS011;24008;42.664;23.372;2024-01-06T09:38:58;74.27;;;32.60;;
6135;SDS011;24008;42.664;23.372;2024-01-06T09:41:25;54.43;;;32.20;;
6135;SDS011;24008;42.664;23.372;2024-01-06T09:43:51;49.30;;;30.70;;
6135;SDS011;24008;42.664;23.372;2024-01-06T09:46:21;46.60;;;28.43;;
6135;SDS011;24008;42.664;23.372;2024-01-06T09:48:53;52.37;;;30.93;;
6135;SDS011;24008;42.664;23.372;2024-01-06T09:51:20;41.30;;;27.27;;
6135;SDS011;24008;42.664;23.372;2024-01-06T09:53:48;40.07;;;26.17;;
6135;SDS011;24008;42.664;23.372;2024-01-06T09:56:21;48.90;;;29.07;;
6135;SDS011;24008;42.664;23.372;2024-01-06T09:58:50;51.20;;;29.77;;
6135;SDS011;24008;42.664;23.372;2024-01-06T10:01:17;47.53;;;27.77;;
6135;SDS011;24008;42.664;23.372;2024-01-06T10:03:44;43.70;;;26.13;;
6135;SDS011;24008;42.664;23.372;2024-01-06T10:06:13;48.20;;;29.33;;
6135;SDS011;24008;42.664;23.372;2024-01-06T10:08:42;45.43;;;29.37;;
6135;SDS011;24008;42.664;23.372;2024-01-06T10:11:08;51.70;;;27.90;;
6135;SDS011;24008;42.664;23.372;2024-01-06T10:13:35;47.07;;;26.57;;
6135;SDS011;24008;42.664;23.372;2024-01-06T10:16:03;42.27;;;26.33;;
6135;SDS011;24008;42.664;23.372;2024-01-06T10:18:30;40.27;;;24.67;;
6135;SDS011;24008;42.664;23.372;2024-01-06T10:20:57;34.90;;;21.50;;
6135;SDS011;24008;42.664;23.372;2024-01-06T10:23:26;41.83;;;22.43;;
6135;SDS011;24008;42.664;23.372;2024-01-06T10:25:54;38.90;;;22.50;;
6135;SDS011;24008;42.664;23.372;2024-01-06T10:28:21;37.30;;;22.80;;
6135;SDS011;24008;42.664;23.372;2024-01-06T10:30:48;40.40;;;22.77;;
6135;SDS011;24008;42.664;23.372;2024-01-06T10:33:17;35.53;;;21.27;;
6135;SDS011;24008;42.664;23.372;2024-01-06T10:35:45;41.30;;;21.50;;
6135;SDS011;24008;42.664;23.372;2024-01-06T10:38:12;34.63;;;23.13;;
6135;SDS011;24008;42.664;23.372;2024-01-06T10:40:41;39.00;;;22.80;;
6135;SDS011;24008;42.664;23.372;2024-01-06T10:43:22;35.20;;;22.17;;
6135;SDS011;24008;42.664;23.372;2024-01-06T10:45:51;34.23;;;22.13;;
6135;SDS011;24008;42.664;23.372;2024-01-06T10:48:20;43.57;;;23.60;;
6135;SDS011;24008;42.664;23.372;2024-01-06T10:50:48;37.53;;;22.53;;
6135;SDS011;24008;42.664;23.372;2024-01-06T10:53:16;48.80;;;24.63;;
6135;SDS011;24008;42.664;23.372;2024-01-06T10:55:45;34.17;;;22.30;;
6135;SDS011;24008;42.664;23.372;2024-01-06T10:58:14;38.07;;;22.73;;
6135;SDS011;24008;42.664;23.372;2024-01-06T11:00:43;31.80;;;20.67;;
6135;SDS011;24008;42.664;23.372;2024-01-06T11:03:10;37.90;;;20.97;;
6135;SDS011;24008;42.664;23.372;2024-01-06T11:05:39;33.90;;;20.60;;
6135;SDS011;24008;42.664;23.372;2024-01-06T11:08:07;28.07;;;16.53;;
6135;SDS011;24008;42.664;23.372;2024-01-06T11:10:35;29.97;;;15.37;;
6135;SDS011;24008;42.664;23.372;2024-01-06T11:13:11;24.70;;;14.10;;
6135;SDS011;24008;42.664;23.372;2024-01-06T11:15:39;22.60;;;13.80;;
6135;SDS011;24008;42.664;23.372;2024-01-06T11:18:06;22.43;;;13.37;;
6135;SDS011;24008;42.664;23.372;2024-01-06T11:20:32;26.43;;;15.60;;
6135;SDS011;24008;42.664;23.372;2024-01-06T11:25:45;16.73;;;10.70;;
6135;SDS011;24008;42.664;23.372;2024-01-06T11:28:13;17.60;;;11.07;;
6135;SDS011;24008;42.664;23.372;2024-01-06T11:30:43;20.83;;;12.43;;
6135;SDS011;24008;42.664;23.372;2024-01-06T11:33:09;18.73;;;12.47;;
6135;SDS011;24008;42.664;23.372;2024-01-06T11:35:37;26.40;;;13.30;;
6135;SDS011;24008;42.664;23.372;2024-01-06T11:38:06;27.13;;;14.73;;
6135;SDS011;24008;42.664;23.372;2024-01-06T11:40:34;25.30;;;16.27;;
6135;SDS011;24008;42.664;23.372;2024-01-06T11:43:02;27.20;;;16.40;;
6135;SDS011;24008;42.664;23.372;2024-01-06T11:45:33;27.00;;;15.67;;
6135;SDS011;24008;42.664;23.372;2024-01-06T11:48:00;21.07;;;13.80;;
6135;SDS011;24008;42.664;23.372;2024-01-06T11:50:29;23.77;;;14.57;;
6135;SDS011;24008;42.664;23.372;2024-01-06T11:52:58;27.37;;;14.20;;
6135;SDS011;24008;42.664;23.372;2024-01-06T11:55:26;20.47;;;14.03;;
6135;SDS011;24008;42.664;23.372;2024-01-06T11:57:54;28.47;;;15.63;;
6135;SDS011;24008;42.664;23.372;2024-01-06T12:00:21;27.57;;;16.03;;
6135;SDS011;24008;42.664;23.372;2024-01-06T12:02:49;25.57;;;15.80;;
6135;SDS011;24008;42.664;23.372;2024-01-06T12:05:17;28.67;;;15.87;;
6135;SDS011;24008;42.664;23.372;2024-01-06T12:07:52;25.90;;;16.53;;
6135;SDS011;24008;42.664;23.372;2024-01-06T12:10:20;27.37;;;16.97;;
6135;SDS011;24008;42.664;23.372;2024-01-06T12:12:54;28.77;;;16.93;;
6135;SDS011;24008;42.664;23.372;2024-01-06T12:15:21;27.93;;;17.50;;
6135;SDS011;24008;42.664;23.372;2024-01-06T12:17:50;31.33;;;16.97;;
6135;SDS011;24008;42.664;23.372;2024-01-06T12:20:16;25.57;;;16.70;;
6135;SDS011;24008;42.664;23.372;2024-01-06T12:22:43;24.47;;;15.03;;
6135;SDS011;24008;42.664;23.372;2024-01-06T12:25:10;23.63;;;15.50;;
6135;SDS011;24008;42.664;23.372;2024-01-06T12:27:41;26.97;;;14.87;;
6135;SDS011;24008;42.664;23.372;2024-01-06T12:30:11;23.53;;;14.73;;
6135;SDS011;24008;42.664;23.372;2024-01-06T12:32:40;24.33;;;15.70;;
6135;SDS011;24008;42.664;23.372;2024-01-06T12:35:09;28.30;;;15.47;;
6135;SDS011;24008;42.664;23.372;2024-01-06T12:37:36;28.10;;;14.93;;
6135;SDS011;24008;42.664;23.372;2024-01-06T12:40:03;20.27;;;14.17;;
6135;SDS011;24008;42.664;23.372;2024-01-06T12:42:31;23.70;;;14.27;;
6135;SDS011;24008;42.664;23.372;2024-01-06T12:44:57;22.67;;;13.80;;
6135;SDS011;24008;42.664;23.372;2024-01-06T12:47:24;27.70;;;13.77;;
6135;SDS011;24008;42.664;23.372;2024-01-06T12:49:51;24.10;;;13.63;;
6135;SDS011;24008;42.664;23.372;2024-01-06T12:52:19;21.80;;;13.57;;
6135;SDS011;24008;42.664;23.372;2024-01-06T12:54:46;21.10;;;14.00;;
6135;SDS011;24008;42.664;23.372;2024-01-06T12:57:12;21.17;;;13.43;;
6135;SDS011;24008;42.664;23.372;2024-01-06T12:59:39;21.10;;;12.97;;
6135;SDS011;24008;42.664;23.372;2024-01-06T13:02:06;19.30;;;12.60;;
6135;SDS011;24008;42.664;23.372;2024-01-06T13:04:33;22.37;;;13.00;;
6135;SDS011;24008;42.664;23.372;2024-01-06T13:06:59;23.17;;;12.33;;
6135;SDS011;24008;42.664;23.372;2024-01-06T13:09:28;22.77;;;13.07;;
6135;SDS011;24008;42.664;23.372;2024-01-06T13:11:55;22.13;;;12.40;;
6135;SDS011;24008;42.664;23.372;2024-01-06T13:14:25;17.00;;;10.33;;
6135;SDS011;24008;42.664;23.372;2024-01-06T13:16:52;18.13;;;9.73;;
6135;SDS011;24008;42.664;23.372;2024-01-06T13:19:19;15.90;;;10.33;;
6135;SDS011;24008;42.664;23.372;2024-01-06T13:21:46;12.80;;;9.00;;
6135;SDS011;24008;42.664;23.372;2024-01-06T13:24:13;16.30;;;8.67;;
6135;SDS011;24008;42.664;23.372;2024-01-06T13:26:41;16.77;;;8.47;;
6135;SDS011;24008;42.664;23.372;2024-01-06T13:29:07;18.87;;;7.93;;
6135;SDS011;24008;42.664;23.372;2024-01-06T13:31:34;13.47;;;8.23;;
6135;SDS011;24008;42.664;23.372;2024-01-06T13:34:02;11.27;;;8.17;;
6135;SDS011;24008;42.664;23.372;2024-01-06T13:36:29;11.07;;;7.63;;
6135;SDS011;24008;42.664;23.372;2024-01-06T13:38:56;14.40;;;7.57;;
6135;SDS011;24008;42.664;23.372;2024-01-06T13:41:24;16.83;;;7.40;;
6135;SDS011;24008;42.664;23.372;2024-01-06T13:43:53;13.50;;;7.33;;
6135;SDS011;24008;42.664;23.372;2024-01-06T13:46:19;9.60;;;6.70;;
6135;SDS011;24008;42.664;23.372;2024-01-06T13:48:46;13.57;;;7.63;;
6135;SDS011;24008;42.664;23.372;2024-01-06T13:51:13;11.03;;;7.50;;
6135;SDS011;24008;42.664;23.372;2024-01-06T13:53:39;13.30;;;8.23;;
6135;SDS011;24008;42.664;23.372;2024-01-06T13:56:06;18.73;;;8.93;;
6135;SDS011;24008;42.664;23.372;2024-01-06T13:58:33;13.70;;;8.47;;
6135;SDS011;24008;42.664;23.372;2024-01-06T14:01:02;16.40;;;8.63;;
6135;SDS011;24008;42.664;23.372;2024-01-06T14:03:29;13.23;;;8.43;;
6135;SDS011;24008;42.664;23.372;2024-01-06T14:05:56;14.23;;;7.90;;
6135;SDS011;24008;42.664;23.372;2024-01-06T14:08:23;16.33;;;8.30;;
6135;SDS011;24008;42.664;23.372;2024-01-06T14:10:50;14.00;;;8.13;;
6135;SDS011;24008;42.664;23.372;2024-01-06T14:13:16;19.90;;;8.37;;
6135;SDS011;24008;42.664;23.372;2024-01-06T14:15:43;17.40;;;8.57;;
6135;SDS011;24008;42.664;23.372;2024-01-06T14:18:11;17.17;;;8.10;;
6135;SDS011;24008;42.664;23.372;2024-01-06T14:20:41;16.20;;;8.77;;
6135;SDS011;24008;42.664;23.372;2024-01-06T14:23:07;14.17;;;8.00;;
6135;SDS011;24008;42.664;23.372;2024-01-06T14:25:35;16.63;;;8.03;;
6135;SDS011;24008;42.664;23.372;2024-01-06T14:28:01;13.80;;;9.13;;
6135;SDS011;24008;42.664;23.372;2024-01-06T14:30:28;18.87;;;10.17;;